Flight Track Log - Related Links

Times and Time Zones

All times are in EDT time to prevent confusion due to time zone crossing. See the LXJ523 flight status page for this flight to view local times or setup timezone preferences in your user account.

Time Position Orientation Groundspeed Altitude Reporting Facility
EDT Latitude Longitude Course Direction KTS MPH feet Rate Location/Type
Sat 08:42:45 AM 26.6647 -80.0067 270° West 245 282 3,900  Level Miami Center
Sat 08:45:00 AM 26.5592 -79.9983 241° Southwest  Level FlightAware
Sat 08:45:45 AM 26.5897 -80.1858 241° Southwest 309 356 10,100  Level Miami Center
Sat 08:46:45 AM 26.5978 -80.2836 275° West 329 379 11,200 1,650 Climbing Miami Center
Sat 08:47:00 AM 26.6000 -80.3858 270° West  Level FlightAware
Sat 08:47:45 AM 26.6058 -80.3906 275° West 335 386 13,400  Level Miami Center
Sat 08:48:00 AM 26.6000 -80.5170 270° West  Level FlightAware
Sat 08:48:45 AM 26.6114 -80.5069 273° West 373 429 16,200  Level Miami Center
Sat 08:49:45 AM 26.5856 -80.6178 255° West 380 437 19,100 2,450 Climbing Miami Center
Sat 08:50:45 AM 26.4858 -80.6772 208° Southwest 363 418 21,100 1,900 Climbing Miami Center
Sat 08:51:45 AM 26.3861 -80.7389 209° Southwest 397 457 22,900 1,850 Climbing Miami Center
Sat 08:52:45 AM 26.2778 -80.8047 209° Southwest 432 497 24,800 1,750 Climbing Miami Center
Sat 08:53:45 AM 26.1903 -80.8689 213° Southwest 437 503 26,400 1,550 Climbing Miami Center
Sat 08:54:45 AM 26.1003 -80.9586 222° Southwest 432 497 27,900 1,550 Climbing Miami Center
Sat 08:55:45 AM 26.0097 -81.0547 224° Southwest 439 505 29,500 1,600 Climbing Miami Center
Sat 08:56:45 AM 25.9194 -81.1439 222° Southwest 446 513 31,100 1,600 Climbing Miami Center
Sat 08:57:45 AM 25.8289 -81.2353 222° Southwest 446 513 32,700 1,600 Climbing Miami Center
Sat 08:58:45 AM 25.7364 -81.3289 222° Southwest 446 513 34,300 1,500 Climbing Miami Center
Sat 08:59:45 AM 25.6458 -81.4200 222° Southwest 446 513 35,700 1,300 Climbing Miami Center
Sat 09:00:45 AM 25.5553 -81.5108 222° Southwest 446 513 36,900 1,250 Climbing Miami Center
Sat 09:01:45 AM 25.4561 -81.6128 223° Southwest 446 513 38,200 1,350 Climbing Miami Center
Sat 09:02:45 AM 25.3739 -81.6947 222° Southwest 446 513 39,600 1,350 Climbing Miami Center
Sat 09:03:45 AM 25.2856 -81.7808 221° Southwest 436 502 40,900 1,000 Climbing Miami Center
Sat 09:04:45 AM 25.2014 -81.8644 222° Southwest 423 487 41,600 600 Climbing Miami Center
Sat 09:05:45 AM 25.1189 -81.9506 223° Southwest 418 481 42,100 500 Climbing Miami Center
Sat 09:06:45 AM 25.0283 -82.0361 221° Southwest 418 481 42,600 450 Climbing Miami Center
Sat 09:07:45 AM 24.9439 -82.1219 223° Southwest 418 481 43,000 200 Climbing Miami Center
Sat 09:08:45 AM 24.8572 -82.2053 221° Southwest 418 481 43,000  Level Miami Center
Sat 09:09:45 AM 24.7750 -82.2886 223° Southwest 418 481 43,000  Level Miami Center
Sat 09:10:45 AM 24.6925 -82.3717 222° Southwest 413 475 43,000  Level Miami Center
Sat 09:11:45 AM 24.6078 -82.4592 223° Southwest 413 475 43,000  Level Miami Center
Sat 09:12:45 AM 24.5233 -82.5422 222° Southwest 413 475 43,000  Level Miami Center
Sat 09:13:45 AM 24.4386 -82.6250 222° Southwest 407 468 43,000  Level Miami Center
Sat 09:14:45 AM 24.3519 -82.7075 221° Southwest 407 468 43,000  Level Miami Center
Sat 09:15:45 AM 24.2650 -82.7922 222° Southwest 407 468 43,000  Level Miami Center
Sat 09:16:45 AM 24.1803 -82.8769 222° Southwest 412 474 43,000  Level Miami Center
Sat 09:17:45 AM 24.0892 -82.9636 221° Southwest 412 474 43,000  Level Miami Center
Sat 09:19:00 AM 23.9876 -83.0612 244° Southwest  Level FlightAware
Sat 09:26:00 AM 23.6513 -83.8116 244° Southwest  Level FlightAware
Sat 09:27:00 AM 23.6029 -83.9185 244° Southwest  Level FlightAware
Sat 09:28:00 AM 23.5545 -84.0253 244° Southwest  Level FlightAware
Sat 09:29:00 AM 23.5060 -84.1320 244° Southwest  Level FlightAware
Sat 09:30:00 AM 23.4574 -84.2386 244° Southwest  Level FlightAware
Sat 09:31:00 AM 23.4088 -84.3452 244° Southwest  Level FlightAware
Sat 09:32:00 AM 23.3601 -84.4517 244° Southwest  Level FlightAware
Sat 09:33:00 AM 23.3113 -84.5581 243° Southwest  Level FlightAware
Sat 09:34:00 AM 23.2624 -84.6645 243° Southwest  Level FlightAware
Sat 09:35:00 AM 23.2135 -84.7707 243° Southwest  Level FlightAware
Sat 09:36:00 AM 23.1391 -84.8549 220° Southwest  Level FlightAware
Sat 09:37:00 AM 23.0549 -84.9306 220° Southwest  Level FlightAware
Sat 09:38:00 AM 22.9689 -85.0037 218° Southwest  Level FlightAware
Sat 09:39:00 AM 22.8860 -85.0807 223° Southwest  Level FlightAware
Sat 09:40:00 AM 22.8057 -85.1610 223° Southwest  Level FlightAware
Sat 09:41:00 AM 22.7254 -85.2413 223° Southwest  Level FlightAware
Sat 09:42:00 AM 22.6452 -85.3215 223° Southwest  Level FlightAware
Sat 09:43:00 AM 22.5630 -85.3994 221° Southwest  Level FlightAware
Sat 09:44:00 AM 22.4804 -85.4768 221° Southwest  Level FlightAware
Sat 09:45:00 AM 22.3979 -85.5542 221° Southwest  Level FlightAware
Sat 09:46:00 AM 22.3106 -85.6242 229° Southwest  Level FlightAware
Sat 09:47:00 AM 22.2379 -85.7121 223° Southwest  Level FlightAware
Sat 09:48:00 AM 22.1578 -85.7923 223° Southwest  Level FlightAware
Sat 09:49:00 AM 22.0728 -85.8662 217° Southwest  Level FlightAware
Sat 09:50:00 AM 21.9858 -85.9374 217° Southwest  Level FlightAware
Sat 09:51:00 AM 21.9110 -86.0201 220° Southwest  Level FlightAware
Sat 09:52:00 AM 21.8272 -86.0956 220° Southwest  Level FlightAware
Sat 09:53:00 AM 21.7434 -86.1710 220° Southwest  Level FlightAware
Sat 09:54:00 AM 21.6596 -86.2464 220° Southwest  Level FlightAware
Sat 09:55:00 AM 21.5755 -86.3214 219° Southwest  Level FlightAware
Sat 09:56:00 AM 21.4908 -86.3955 219° Southwest  Level FlightAware
Sat 09:57:00 AM 21.4124 -86.4770 226° Southwest  Level FlightAware
Sat 09:58:00 AM 21.3365 -86.5613 226° Southwest  Level FlightAware
Sat 09:59:00 AM 21.2542 -86.6380 219° Southwest  Level FlightAware
Sat 10:00:00 AM 21.1703 -86.7130 223° Southwest  Level FlightAware
Sat 10:01:00 AM 21.0883 -86.7879 231° Southwest  Level FlightAware
Sat 10:02:00 AM 21.0167 -86.8667 270° West  Level FlightAware
Sat 10:03:00 AM 21.0365 -86.8771 270° West  Level Estimated
Sat 10:04:00 AM 21.0365 -86.8771 270° West  Level Estimated
Sat 10:05:00 AM 21.0365 -86.8771 270° West  Level Estimated
Sat 10:06:00 AM 21.0365 -86.8771 270° West  Level Estimated
Sat 10:07:00 AM 21.0365 -86.8771 270° West  Level Estimated
Sat 10:08:00 AM 21.0365 -86.8771 270° West  Level Estimated
Sat 10:09:00 AM 21.0365 -86.8771 270° West  Level Estimated
Sat 10:10:00 AM 21.0365 -86.8771 270° West  Level Estimated
Sat 10:11:00 AM 21.0365 -86.8771 270° West  Level Estimated
Sat 10:12:00 AM 21.0365 -86.8771 270° West  Level Estimated
Sat 10:13:00 AM 21.0365 -86.8771 270° West  Level Estimated
Sat 10:14:00 AM 21.0365 -86.8771 270° West  Level Estimated
Sat 10:15:00 AM 21.0365 -86.8771 270° West  Level Estimated
Sat 10:16:00 AM 21.0365 -86.8771 270° West  Level Estimated
Sat 10:17:00 AM 21.0365 -86.8771 270° West  Level Estimated
Sat 10:18:00 AM 21.0365 -86.8771 270° West  Level Estimated
Sat 10:19:00 AM 21.0365 -86.8771 270° West  Level Estimated

Login

Don't have an account? Register now (free) for customized features, flight alerts, and more!